Ardmore, SD

4:46 AM MDT on July 28, 2014 (GMT -0600)
Chadron Municipal (KCDR) Elev 3297 ft | 42.84 °N, 103.10 °W | Change Station

Current weather conditions updated 53 minutes ago

Clear
Clear
57 °F
Feels Like 57 °F
N
4
Wind Variable Wind from NNE

Today is forecast to be nearly the same temperature as yesterday.

Today
High -- | Low -- °F
--% Chance of Precip.
Yesterday
High -- | Low -- °F
Precip. -- in
5:41 AM 8:20 PM
New Moon, 2% visible
Pressure 30.28 in
Visibility 10.0 miles
Clouds Clear
Dew Point 51 °F
Humidity 81%
Rainfall 0.00 in
Snow Depth Not available.
UV 0 out of 12
Pollen 7.40 out of 12
Air Quality Not available.
Flu Activity Not available.
METAR KCDR 280953Z AUTO 02003KT 10SM CLR 14/11 A3034 RMK AO2 SLP253 T01390106

More Conditions Fewer Conditions

Pressure 30.28 in
Visibility 10.0 miles
Clouds Clear
Dew Point 51 °F
Humidity 81%
Rainfall 0.00 in
Snow Depth Not available.
UV 0 out of 12
Pollen 7.40 out of 12
Air Quality Not available.
Flu Activity Not available.
METAR KCDR 280953Z AUTO 02003KT 10SM CLR 14/11 A3034 RMK AO2 SLP253 T01390106

More Conditions Fewer Conditions

10-Day Weather Forecast

Almanac

Astronomy

Jul. 28, 2014 Rise Set
Actual Time 5:41 AM MDT 8:20 PM MDT
Civil Twilight 5:08 AM MDT 8:52 PM MDT
Nautical Twilight 4:27 AM MDT 9:33 PM MDT
Astronomical Twilight 3:40 AM MDT 10:20 PM MDT
Moon 7:29 AM MDT 8:58 PM MDT
Length of Visible Light 15h 44m
Length of Day
14h 38m
Tomorrow will be 2m 7s shorter.
New Moon, 2% of the Moon is Illuminated
Today
New Moon
Aug 3
First Quarter
Aug 10
Full
Aug 17
Last Quarter
Aug 25
New

Today's Extremes

State Highs State Lows

Community

WunderPhotos

Upload Photos

1,738,295 photos uploaded!

Nearby

Snow Depth

Station Depth Elevation
Blind Park 1 in 6890 ft
North Rapid Creek 0 in 6130 ft

Earthquake Activity

City Distance Mag. Time & Date
No recent earthquake activity has been reported nearby.
Minimum magnitude displayed is 2.5.

Coastal Water Temperatures

Place Temperature
No Stations Reporting

Nearby Weather Stations

There are no personal weather stations in this area.